sensor_id;sensor_type;location;lat;lon;timestamp;P1;durP1;ratioP1;P2;durP2;ratioP2
3597;SDS011;1813;52.016;8.714;2022-08-05T00:01:59;8.17;;;3.90;;
3597;SDS011;1813;52.016;8.714;2022-08-05T00:04:32;9.90;;;3.77;;
3597;SDS011;1813;52.016;8.714;2022-08-05T00:07:05;6.63;;;3.60;;
3597;SDS011;1813;52.016;8.714;2022-08-05T00:09:37;5.77;;;3.57;;
3597;SDS011;1813;52.016;8.714;2022-08-05T00:12:08;5.33;;;3.30;;
3597;SDS011;1813;52.016;8.714;2022-08-05T00:14:40;4.60;;;3.80;;
3597;SDS011;1813;52.016;8.714;2022-08-05T00:17:12;11.00;;;3.93;;
3597;SDS011;1813;52.016;8.714;2022-08-05T00:19:46;6.73;;;3.77;;
3597;SDS011;1813;52.016;8.714;2022-08-05T00:22:18;6.33;;;4.00;;
3597;SDS011;1813;52.016;8.714;2022-08-05T00:24:50;9.80;;;3.57;;
3597;SDS011;1813;52.016;8.714;2022-08-05T00:27:22;6.23;;;3.47;;
3597;SDS011;1813;52.016;8.714;2022-08-05T00:29:54;6.30;;;3.40;;
3597;SDS011;1813;52.016;8.714;2022-08-05T00:32:26;8.63;;;4.10;;
3597;SDS011;1813;52.016;8.714;2022-08-05T00:34:59;7.03;;;3.40;;
3597;SDS011;1813;52.016;8.714;2022-08-05T00:37:31;6.50;;;3.07;;
3597;SDS011;1813;52.016;8.714;2022-08-05T00:40:03;4.80;;;3.30;;
3597;SDS011;1813;52.016;8.714;2022-08-05T00:42:36;9.90;;;3.60;;
3597;SDS011;1813;52.016;8.714;2022-08-05T00:45:09;6.93;;;3.77;;
3597;SDS011;1813;52.016;8.714;2022-08-05T00:47:41;7.80;;;3.43;;
3597;SDS011;1813;52.016;8.714;2022-08-05T00:50:15;8.00;;;3.33;;
3597;SDS011;1813;52.016;8.714;2022-08-05T00:52:47;8.03;;;3.73;;
3597;SDS011;1813;52.016;8.714;2022-08-05T00:55:19;8.90;;;3.50;;
3597;SDS011;1813;52.016;8.714;2022-08-05T00:57:51;8.20;;;3.57;;
3597;SDS011;1813;52.016;8.714;2022-08-05T01:00:23;5.80;;;3.40;;
3597;SDS011;1813;52.016;8.714;2022-08-05T01:02:55;4.13;;;3.57;;
3597;SDS011;1813;52.016;8.714;2022-08-05T01:05:29;8.40;;;3.90;;
3597;SDS011;1813;52.016;8.714;2022-08-05T01:08:01;17.93;;;4.90;;
3597;SDS011;1813;52.016;8.714;2022-08-05T01:10:35;13.93;;;5.77;;
3597;SDS011;1813;52.016;8.714;2022-08-05T01:13:15;14.40;;;5.97;;
3597;SDS011;1813;52.016;8.714;2022-08-05T01:15:56;15.73;;;5.70;;
3597;SDS011;1813;52.016;8.714;2022-08-05T01:18:31;19.27;;;6.00;;
3597;SDS011;1813;52.016;8.714;2022-08-05T01:21:10;17.13;;;6.17;;
3597;SDS011;1813;52.016;8.714;2022-08-05T01:24:00;21.60;;;6.60;;
3597;SDS011;1813;52.016;8.714;2022-08-05T01:26:43;16.23;;;7.10;;
3597;SDS011;1813;52.016;8.714;2022-08-05T01:29:28;20.77;;;6.93;;
3597;SDS011;1813;52.016;8.714;2022-08-05T01:32:08;14.43;;;6.53;;
3597;SDS011;1813;52.016;8.714;2022-08-05T01:34:44;16.20;;;6.57;;
3597;SDS011;1813;52.016;8.714;2022-08-05T01:37:21;16.27;;;7.37;;
3597;SDS011;1813;52.016;8.714;2022-08-05T01:39:59;14.43;;;6.67;;
3597;SDS011;1813;52.016;8.714;2022-08-05T01:42:33;13.40;;;6.87;;
3597;SDS011;1813;52.016;8.714;2022-08-05T01:45:10;17.70;;;7.37;;
3597;SDS011;1813;52.016;8.714;2022-08-05T01:47:45;15.67;;;6.40;;
3597;SDS011;1813;52.016;8.714;2022-08-05T01:50:21;15.23;;;5.50;;
3597;SDS011;1813;52.016;8.714;2022-08-05T01:52:58;10.30;;;6.00;;
3597;SDS011;1813;52.016;8.714;2022-08-05T01:55:32;13.03;;;6.90;;
3597;SDS011;1813;52.016;8.714;2022-08-05T01:58:08;12.23;;;7.17;;
3597;SDS011;1813;52.016;8.714;2022-08-05T02:00:43;16.10;;;6.90;;
3597;SDS011;1813;52.016;8.714;2022-08-05T02:03:22;11.17;;;5.60;;
3597;SDS011;1813;52.016;8.714;2022-08-05T02:05:58;14.33;;;6.43;;
3597;SDS011;1813;52.016;8.714;2022-08-05T02:08:31;11.93;;;6.53;;
3597;SDS011;1813;52.016;8.714;2022-08-05T02:11:05;11.27;;;7.10;;
3597;SDS011;1813;52.016;8.714;2022-08-05T02:13:43;12.13;;;6.97;;
3597;SDS011;1813;52.016;8.714;2022-08-05T02:16:24;11.90;;;7.10;;
3597;SDS011;1813;52.016;8.714;2022-08-05T02:18:59;15.97;;;7.70;;
3597;SDS011;1813;52.016;8.714;2022-08-05T02:21:38;12.50;;;7.47;;
3597;SDS011;1813;52.016;8.714;2022-08-05T02:24:15;15.90;;;7.77;;
3597;SDS011;1813;52.016;8.714;2022-08-05T02:26:55;13.40;;;6.80;;
3597;SDS011;1813;52.016;8.714;2022-08-05T02:29:30;15.23;;;7.43;;
3597;SDS011;1813;52.016;8.714;2022-08-05T02:32:07;14.93;;;6.77;;
3597;SDS011;1813;52.016;8.714;2022-08-05T02:34:41;12.97;;;7.13;;
3597;SDS011;1813;52.016;8.714;2022-08-05T02:37:16;21.83;;;7.80;;
3597;SDS011;1813;52.016;8.714;2022-08-05T02:39:50;15.60;;;7.67;;
3597;SDS011;1813;52.016;8.714;2022-08-05T02:42:22;15.53;;;8.07;;
3597;SDS011;1813;52.016;8.714;2022-08-05T02:44:54;13.77;;;7.63;;
3597;SDS011;1813;52.016;8.714;2022-08-05T02:47:30;22.00;;;8.00;;
3597;SDS011;1813;52.016;8.714;2022-08-05T02:50:07;18.47;;;7.90;;
3597;SDS011;1813;52.016;8.714;2022-08-05T02:52:42;12.43;;;7.90;;
3597;SDS011;1813;52.016;8.714;2022-08-05T02:55:16;16.73;;;7.83;;
3597;SDS011;1813;52.016;8.714;2022-08-05T02:57:48;23.43;;;8.20;;
3597;SDS011;1813;52.016;8.714;2022-08-05T03:00:21;16.50;;;8.50;;
3597;SDS011;1813;52.016;8.714;2022-08-05T03:02:54;21.60;;;8.90;;
3597;SDS011;1813;52.016;8.714;2022-08-05T03:05:28;17.17;;;8.40;;
3597;SDS011;1813;52.016;8.714;2022-08-05T03:08:01;27.30;;;8.53;;
3597;SDS011;1813;52.016;8.714;2022-08-05T03:10:33;15.17;;;8.27;;
3597;SDS011;1813;52.016;8.714;2022-08-05T03:13:10;18.33;;;8.40;;
3597;SDS011;1813;52.016;8.714;2022-08-05T03:15:43;19.87;;;8.70;;
3597;SDS011;1813;52.016;8.714;2022-08-05T03:18:17;12.73;;;8.53;;
3597;SDS011;1813;52.016;8.714;2022-08-05T03:20:49;12.57;;;7.93;;
3597;SDS011;1813;52.016;8.714;2022-08-05T03:23:21;14.37;;;8.90;;
3597;SDS011;1813;52.016;8.714;2022-08-05T03:25:53;15.57;;;9.20;;
3597;SDS011;1813;52.016;8.714;2022-08-05T03:28:26;18.57;;;9.90;;
3597;SDS011;1813;52.016;8.714;2022-08-05T03:30:59;21.07;;;10.80;;
3597;SDS011;1813;52.016;8.714;2022-08-05T03:33:34;22.53;;;12.37;;
3597;SDS011;1813;52.016;8.714;2022-08-05T03:36:07;28.47;;;12.80;;
3597;SDS011;1813;52.016;8.714;2022-08-05T03:38:40;29.70;;;15.00;;
3597;SDS011;1813;52.016;8.714;2022-08-05T03:41:14;28.10;;;16.03;;
3597;SDS011;1813;52.016;8.714;2022-08-05T03:43:46;32.07;;;17.77;;
3597;SDS011;1813;52.016;8.714;2022-08-05T03:46:18;28.20;;;18.33;;
3597;SDS011;1813;52.016;8.714;2022-08-05T03:48:51;35.77;;;19.23;;
3597;SDS011;1813;52.016;8.714;2022-08-05T03:51:25;30.13;;;18.70;;
3597;SDS011;1813;52.016;8.714;2022-08-05T03:54:02;33.53;;;19.63;;
3597;SDS011;1813;52.016;8.714;2022-08-05T03:56:39;33.93;;;20.00;;
3597;SDS011;1813;52.016;8.714;2022-08-05T03:59:15;34.00;;;21.10;;
3597;SDS011;1813;52.016;8.714;2022-08-05T04:01:52;38.90;;;21.33;;
3597;SDS011;1813;52.016;8.714;2022-08-05T04:04:28;47.30;;;20.83;;
3597;SDS011;1813;52.016;8.714;2022-08-05T04:07:02;34.03;;;20.60;;
3597;SDS011;1813;52.016;8.714;2022-08-05T04:09:36;36.73;;;20.30;;
3597;SDS011;1813;52.016;8.714;2022-08-05T04:12:08;33.43;;;20.97;;
3597;SDS011;1813;52.016;8.714;2022-08-05T04:14:40;31.93;;;19.83;;
3597;SDS011;1813;52.016;8.714;2022-08-05T04:17:13;35.13;;;19.90;;
3597;SDS011;1813;52.016;8.714;2022-08-05T04:19:47;33.40;;;20.33;;
3597;SDS011;1813;52.016;8.714;2022-08-05T04:22:19;34.20;;;20.23;;
3597;SDS011;1813;52.016;8.714;2022-08-05T04:24:51;33.53;;;21.17;;
3597;SDS011;1813;52.016;8.714;2022-08-05T04:27:23;41.23;;;20.97;;
3597;SDS011;1813;52.016;8.714;2022-08-05T04:29:55;35.57;;;20.33;;
3597;SDS011;1813;52.016;8.714;2022-08-05T04:32:27;32.40;;;21.10;;
3597;SDS011;1813;52.016;8.714;2022-08-05T04:35:00;40.73;;;22.43;;
3597;SDS011;1813;52.016;8.714;2022-08-05T04:37:32;33.57;;;21.73;;
3597;SDS011;1813;52.016;8.714;2022-08-05T04:40:05;39.10;;;22.67;;
3597;SDS011;1813;52.016;8.714;2022-08-05T04:42:37;37.30;;;22.63;;
3597;SDS011;1813;52.016;8.714;2022-08-05T04:45:09;34.47;;;22.03;;
3597;SDS011;1813;52.016;8.714;2022-08-05T04:47:41;35.60;;;23.33;;
3597;SDS011;1813;52.016;8.714;2022-08-05T04:50:15;35.60;;;22.93;;
3597;SDS011;1813;52.016;8.714;2022-08-05T04:52:47;38.27;;;22.60;;
3597;SDS011;1813;52.016;8.714;2022-08-05T04:55:19;37.27;;;23.10;;
3597;SDS011;1813;52.016;8.714;2022-08-05T04:57:50;43.33;;;24.30;;
3597;SDS011;1813;52.016;8.714;2022-08-05T05:00:22;44.03;;;24.37;;
3597;SDS011;1813;52.016;8.714;2022-08-05T05:02:55;38.47;;;23.50;;
3597;SDS011;1813;52.016;8.714;2022-08-05T05:05:28;40.60;;;24.87;;
3597;SDS011;1813;52.016;8.714;2022-08-05T05:08:01;41.97;;;24.70;;
3597;SDS011;1813;52.016;8.714;2022-08-05T05:10:36;47.07;;;26.90;;
3597;SDS011;1813;52.016;8.714;2022-08-05T05:13:12;47.17;;;27.60;;
3597;SDS011;1813;52.016;8.714;2022-08-05T05:15:45;42.53;;;26.50;;
3597;SDS011;1813;52.016;8.714;2022-08-05T05:18:18;41.17;;;26.93;;
3597;SDS011;1813;52.016;8.714;2022-08-05T05:20:51;43.90;;;25.63;;
3597;SDS011;1813;52.016;8.714;2022-08-05T05:23:23;38.60;;;26.00;;
3597;SDS011;1813;52.016;8.714;2022-08-05T05:25:55;43.13;;;25.87;;
3597;SDS011;1813;52.016;8.714;2022-08-05T05:28:27;41.20;;;25.43;;
3597;SDS011;1813;52.016;8.714;2022-08-05T05:30:59;46.17;;;27.43;;
3597;SDS011;1813;52.016;8.714;2022-08-05T05:33:31;43.60;;;26.07;;
3597;SDS011;1813;52.016;8.714;2022-08-05T05:36:04;45.70;;;26.60;;
3597;SDS011;1813;52.016;8.714;2022-08-05T05:38:36;45.27;;;25.73;;
3597;SDS011;1813;52.016;8.714;2022-08-05T05:41:08;44.53;;;28.53;;
3597;SDS011;1813;52.016;8.714;2022-08-05T05:43:40;45.80;;;26.57;;
3597;SDS011;1813;52.016;8.714;2022-08-05T05:46:12;46.73;;;27.90;;
3597;SDS011;1813;52.016;8.714;2022-08-05T05:48:44;66.23;;;35.87;;
3597;SDS011;1813;52.016;8.714;2022-08-05T05:51:19;58.87;;;31.60;;
3597;SDS011;1813;52.016;8.714;2022-08-05T05:53:52;54.57;;;31.53;;
3597;SDS011;1813;52.016;8.714;2022-08-05T05:56:27;60.63;;;31.70;;
3597;SDS011;1813;52.016;8.714;2022-08-05T05:59:00;56.00;;;31.43;;
3597;SDS011;1813;52.016;8.714;2022-08-05T06:01:33;57.63;;;30.87;;
3597;SDS011;1813;52.016;8.714;2022-08-05T06:04:07;62.73;;;33.13;;
3597;SDS011;1813;52.016;8.714;2022-08-05T06:06:42;50.33;;;30.10;;
3597;SDS011;1813;52.016;8.714;2022-08-05T06:09:15;50.63;;;31.90;;
3597;SDS011;1813;52.016;8.714;2022-08-05T06:11:47;61.60;;;30.93;;
3597;SDS011;1813;52.016;8.714;2022-08-05T06:14:19;62.40;;;34.80;;
3597;SDS011;1813;52.016;8.714;2022-08-05T06:16:51;61.30;;;34.63;;
3597;SDS011;1813;52.016;8.714;2022-08-05T06:19:23;63.23;;;32.27;;
3597;SDS011;1813;52.016;8.714;2022-08-05T06:21:56;57.27;;;31.60;;
3597;SDS011;1813;52.016;8.714;2022-08-05T06:24:28;48.20;;;29.63;;
3597;SDS011;1813;52.016;8.714;2022-08-05T06:27:00;55.10;;;31.00;;
3597;SDS011;1813;52.016;8.714;2022-08-05T06:29:32;51.03;;;31.17;;
3597;SDS011;1813;52.016;8.714;2022-08-05T06:32:05;52.40;;;29.17;;
3597;SDS011;1813;52.016;8.714;2022-08-05T06:34:37;45.10;;;27.80;;
3597;SDS011;1813;52.016;8.714;2022-08-05T06:37:11;41.93;;;27.23;;
3597;SDS011;1813;52.016;8.714;2022-08-05T06:39:43;39.93;;;25.93;;
3597;SDS011;1813;52.016;8.714;2022-08-05T06:42:15;36.00;;;23.27;;
3597;SDS011;1813;52.016;8.714;2022-08-05T06:44:47;30.67;;;19.70;;
3597;SDS011;1813;52.016;8.714;2022-08-05T06:47:19;29.47;;;19.10;;
3597;SDS011;1813;52.016;8.714;2022-08-05T06:49:51;29.27;;;17.93;;
3597;SDS011;1813;52.016;8.714;2022-08-05T06:52:24;25.13;;;17.13;;
3597;SDS011;1813;52.016;8.714;2022-08-05T06:54:56;26.83;;;16.53;;
3597;SDS011;1813;52.016;8.714;2022-08-05T06:57:28;22.90;;;15.23;;
3597;SDS011;1813;52.016;8.714;2022-08-05T07:00:00;19.60;;;13.57;;
3597;SDS011;1813;52.016;8.714;2022-08-05T07:02:39;23.47;;;14.60;;
3597;SDS011;1813;52.016;8.714;2022-08-05T07:05:12;20.53;;;13.20;;
3597;SDS011;1813;52.016;8.714;2022-08-05T07:07:46;25.23;;;14.03;;
3597;SDS011;1813;52.016;8.714;2022-08-05T07:10:18;22.70;;;14.73;;
3597;SDS011;1813;52.016;8.714;2022-08-05T07:12:50;22.03;;;13.23;;
3597;SDS011;1813;52.016;8.714;2022-08-05T07:15:39;22.33;;;13.90;;
3597;SDS011;1813;52.016;8.714;2022-08-05T07:18:28;19.13;;;14.57;;
3597;SDS011;1813;52.016;8.714;2022-08-05T07:21:00;24.20;;;14.43;;
3597;SDS011;1813;52.016;8.714;2022-08-05T07:23:34;21.17;;;13.70;;
3597;SDS011;1813;52.016;8.714;2022-08-05T07:26:06;22.13;;;13.93;;
3597;SDS011;1813;52.016;8.714;2022-08-05T07:28:38;20.50;;;13.27;;
3597;SDS011;1813;52.016;8.714;2022-08-05T07:31:10;19.87;;;14.03;;
3597;SDS011;1813;52.016;8.714;2022-08-05T07:33:42;23.50;;;13.93;;
3597;SDS011;1813;52.016;8.714;2022-08-05T07:36:14;21.90;;;13.90;;
3597;SDS011;1813;52.016;8.714;2022-08-05T07:38:48;17.23;;;12.60;;
3597;SDS011;1813;52.016;8.714;2022-08-05T07:41:20;22.63;;;12.47;;
3597;SDS011;1813;52.016;8.714;2022-08-05T07:43:54;27.63;;;13.60;;
3597;SDS011;1813;52.016;8.714;2022-08-05T07:46:28;18.90;;;13.27;;
3597;SDS011;1813;52.016;8.714;2022-08-05T07:49:01;17.53;;;12.20;;
3597;SDS011;1813;52.016;8.714;2022-08-05T07:51:34;23.77;;;12.20;;
3597;SDS011;1813;52.016;8.714;2022-08-05T07:54:09;20.57;;;12.53;;
3597;SDS011;1813;52.016;8.714;2022-08-05T07:56:41;20.50;;;11.53;;
3597;SDS011;1813;52.016;8.714;2022-08-05T07:59:12;22.20;;;11.50;;
3597;SDS011;1813;52.016;8.714;2022-08-05T08:01:44;15.40;;;11.63;;
3597;SDS011;1813;52.016;8.714;2022-08-05T08:04:16;25.23;;;12.80;;
3597;SDS011;1813;52.016;8.714;2022-08-05T08:06:48;20.87;;;13.27;;
3597;SDS011;1813;52.016;8.714;2022-08-05T08:09:22;18.67;;;13.10;;
3597;SDS011;1813;52.016;8.714;2022-08-05T08:11:54;25.43;;;13.57;;
3597;SDS011;1813;52.016;8.714;2022-08-05T08:14:26;19.73;;;13.33;;
3597;SDS011;1813;52.016;8.714;2022-08-05T08:16:58;21.53;;;15.30;;
3597;SDS011;1813;52.016;8.714;2022-08-05T08:19:30;22.37;;;15.13;;
3597;SDS011;1813;52.016;8.714;2022-08-05T08:22:01;18.10;;;14.33;;
3597;SDS011;1813;52.016;8.714;2022-08-05T08:24:35;24.33;;;14.53;;
3597;SDS011;1813;52.016;8.714;2022-08-05T08:27:07;27.57;;;15.90;;
3597;SDS011;1813;52.016;8.714;2022-08-05T08:29:39;20.40;;;14.80;;
3597;SDS011;1813;52.016;8.714;2022-08-05T08:32:11;20.27;;;15.27;;
3597;SDS011;1813;52.016;8.714;2022-08-05T08:34:43;20.27;;;15.53;;
3597;SDS011;1813;52.016;8.714;2022-08-05T08:37:15;21.47;;;16.17;;
3597;SDS011;1813;52.016;8.714;2022-08-05T08:39:49;21.70;;;15.80;;
3597;SDS011;1813;52.016;8.714;2022-08-05T08:42:21;21.93;;;15.03;;
3597;SDS011;1813;52.016;8.714;2022-08-05T08:44:53;19.67;;;13.30;;
3597;SDS011;1813;52.016;8.714;2022-08-05T08:47:26;17.00;;;13.37;;
3597;SDS011;1813;52.016;8.714;2022-08-05T08:49:58;18.33;;;12.30;;
3597;SDS011;1813;52.016;8.714;2022-08-05T08:52:33;19.67;;;9.77;;
3597;SDS011;1813;52.016;8.714;2022-08-05T08:55:08;17.20;;;9.97;;
3597;SDS011;1813;52.016;8.714;2022-08-05T08:57:40;16.57;;;8.70;;
3597;SDS011;1813;52.016;8.714;2022-08-05T09:00:12;13.73;;;8.63;;
3597;SDS011;1813;52.016;8.714;2022-08-05T09:02:45;21.93;;;8.47;;
3597;SDS011;1813;52.016;8.714;2022-08-05T09:05:18;14.37;;;8.63;;
3597;SDS011;1813;52.016;8.714;2022-08-05T09:07:51;19.83;;;8.63;;
3597;SDS011;1813;52.016;8.714;2022-08-05T09:10:25;14.13;;;8.40;;
3597;SDS011;1813;52.016;8.714;2022-08-05T09:12:58;18.00;;;9.03;;
3597;SDS011;1813;52.016;8.714;2022-08-05T09:15:30;14.80;;;9.50;;
3597;SDS011;1813;52.016;8.714;2022-08-05T09:18:04;19.87;;;10.50;;
3597;SDS011;1813;52.016;8.714;2022-08-05T09:20:37;14.80;;;10.97;;
3597;SDS011;1813;52.016;8.714;2022-08-05T09:23:11;15.13;;;10.90;;
3597;SDS011;1813;52.016;8.714;2022-08-05T09:25:45;15.40;;;12.00;;
3597;SDS011;1813;52.016;8.714;2022-08-05T09:28:20;19.63;;;13.73;;
3597;SDS011;1813;52.016;8.714;2022-08-05T09:30:54;17.63;;;13.53;;
3597;SDS011;1813;52.016;8.714;2022-08-05T09:33:28;30.10;;;17.27;;
3597;SDS011;1813;52.016;8.714;2022-08-05T09:36:00;24.63;;;15.20;;
3597;SDS011;1813;52.016;8.714;2022-08-05T09:38:34;15.47;;;12.40;;
3597;SDS011;1813;52.016;8.714;2022-08-05T09:41:08;12.67;;;10.47;;
3597;SDS011;1813;52.016;8.714;2022-08-05T09:43:40;13.90;;;9.23;;
3597;SDS011;1813;52.016;8.714;2022-08-05T09:46:22;13.00;;;9.03;;
3597;SDS011;1813;52.016;8.714;2022-08-05T09:48:56;15.93;;;11.07;;
3597;SDS011;1813;52.016;8.714;2022-08-05T09:51:30;14.87;;;9.83;;
3597;SDS011;1813;52.016;8.714;2022-08-05T09:54:03;13.37;;;10.30;;
3597;SDS011;1813;52.016;8.714;2022-08-05T09:56:39;15.10;;;10.70;;
3597;SDS011;1813;52.016;8.714;2022-08-05T09:59:15;14.70;;;10.33;;
3597;SDS011;1813;52.016;8.714;2022-08-05T10:01:47;11.67;;;10.20;;
3597;SDS011;1813;52.016;8.714;2022-08-05T10:04:30;15.20;;;10.73;;
3597;SDS011;1813;52.016;8.714;2022-08-05T10:07:05;15.47;;;9.80;;
3597;SDS011;1813;52.016;8.714;2022-08-05T10:09:40;13.00;;;9.40;;
3597;SDS011;1813;52.016;8.714;2022-08-05T10:12:26;15.00;;;9.77;;
3597;SDS011;1813;52.016;8.714;2022-08-05T10:15:17;13.80;;;9.93;;
3597;SDS011;1813;52.016;8.714;2022-08-05T10:18:02;13.10;;;11.03;;
3597;SDS011;1813;52.016;8.714;2022-08-05T10:20:40;12.00;;;10.63;;
3597;SDS011;1813;52.016;8.714;2022-08-05T10:23:16;16.27;;;11.47;;
3597;SDS011;1813;52.016;8.714;2022-08-05T10:25:50;14.23;;;11.00;;
3597;SDS011;1813;52.016;8.714;2022-08-05T10:28:24;16.97;;;12.40;;
3597;SDS011;1813;52.016;8.714;2022-08-05T10:30:56;15.87;;;12.83;;
3597;SDS011;1813;52.016;8.714;2022-08-05T10:33:30;19.67;;;12.20;;
3597;SDS011;1813;52.016;8.714;2022-08-05T10:36:04;16.13;;;12.63;;
3597;SDS011;1813;52.016;8.714;2022-08-05T10:38:36;17.33;;;12.80;;
3597;SDS011;1813;52.016;8.714;2022-08-05T10:41:16;17.80;;;13.80;;
3597;SDS011;1813;52.016;8.714;2022-08-05T10:43:58;15.63;;;11.80;;
3597;SDS011;1813;52.016;8.714;2022-08-05T10:46:43;12.57;;;9.13;;
3597;SDS011;1813;52.016;8.714;2022-08-05T10:49:16;16.20;;;11.10;;
3597;SDS011;1813;52.016;8.714;2022-08-05T10:51:50;13.63;;;10.50;;
3597;SDS011;1813;52.016;8.714;2022-08-05T10:57:24;17.97;;;10.70;;
3597;SDS011;1813;52.016;8.714;2022-08-05T11:00:07;14.07;;;10.67;;
3597;SDS011;1813;52.016;8.714;2022-08-05T11:05:41;17.23;;;11.93;;
3597;SDS011;1813;52.016;8.714;2022-08-05T11:08:33;14.53;;;10.63;;
3597;SDS011;1813;52.016;8.714;2022-08-05T11:14:03;14.33;;;10.13;;
3597;SDS011;1813;52.016;8.714;2022-08-05T11:16:37;15.17;;;10.40;;
3597;SDS011;1813;52.016;8.714;2022-08-05T11:19:25;12.17;;;9.10;;
3597;SDS011;1813;52.016;8.714;2022-08-05T11:25:28;12.53;;;7.97;;
3597;SDS011;1813;52.016;8.714;2022-08-05T11:31:25;12.53;;;10.33;;
3597;SDS011;1813;52.016;8.714;2022-08-05T11:34:02;14.47;;;9.67;;
3597;SDS011;1813;52.016;8.714;2022-08-05T11:36:47;12.73;;;9.27;;
3597;SDS011;1813;52.016;8.714;2022-08-05T11:42:22;9.37;;;8.37;;
3597;SDS011;1813;52.016;8.714;2022-08-05T11:45:00;11.10;;;8.70;;
3597;SDS011;1813;52.016;8.714;2022-08-05T11:47:34;10.83;;;8.33;;
3597;SDS011;1813;52.016;8.714;2022-08-05T11:50:08;11.77;;;8.47;;
3597;SDS011;1813;52.016;8.714;2022-08-05T11:52:40;10.70;;;8.17;;
3597;SDS011;1813;52.016;8.714;2022-08-05T11:55:12;8.23;;;7.40;;
3597;SDS011;1813;52.016;8.714;2022-08-05T11:57:45;13.20;;;7.13;;
3597;SDS011;1813;52.016;8.714;2022-08-05T12:00:27;11.57;;;7.57;;
3597;SDS011;1813;52.016;8.714;2022-08-05T12:03:13;10.90;;;7.83;;
3597;SDS011;1813;52.016;8.714;2022-08-05T12:05:47;9.50;;;7.17;;
3597;SDS011;1813;52.016;8.714;2022-08-05T12:08:20;8.77;;;7.10;;
3597;SDS011;1813;52.016;8.714;2022-08-05T12:10:52;11.00;;;7.20;;
3597;SDS011;1813;52.016;8.714;2022-08-05T12:13:26;9.67;;;6.90;;
3597;SDS011;1813;52.016;8.714;2022-08-05T12:15:58;9.73;;;6.17;;
3597;SDS011;1813;52.016;8.714;2022-08-05T12:18:31;10.03;;;6.37;;
3597;SDS011;1813;52.016;8.714;2022-08-05T12:21:09;9.67;;;6.17;;
3597;SDS011;1813;52.016;8.714;2022-08-05T12:23:56;9.70;;;5.70;;
3597;SDS011;1813;52.016;8.714;2022-08-05T12:26:29;7.13;;;4.80;;
3597;SDS011;1813;52.016;8.714;2022-08-05T12:29:03;8.70;;;4.20;;
3597;SDS011;1813;52.016;8.714;2022-08-05T12:31:36;4.80;;;3.63;;
3597;SDS011;1813;52.016;8.714;2022-08-05T12:34:08;3.70;;;3.40;;
3597;SDS011;1813;52.016;8.714;2022-08-05T12:36:42;4.93;;;3.60;;
3597;SDS011;1813;52.016;8.714;2022-08-05T12:39:15;3.50;;;3.10;;
3597;SDS011;1813;52.016;8.714;2022-08-05T12:41:48;4.17;;;2.80;;
3597;SDS011;1813;52.016;8.714;2022-08-05T12:44:20;4.50;;;3.80;;
3597;SDS011;1813;52.016;8.714;2022-08-05T12:46:53;5.10;;;3.50;;
3597;SDS011;1813;52.016;8.714;2022-08-05T12:49:26;4.83;;;3.83;;
3597;SDS011;1813;52.016;8.714;2022-08-05T12:52:15;4.30;;;3.90;;
3597;SDS011;1813;52.016;8.714;2022-08-05T12:54:47;6.97;;;4.20;;
3597;SDS011;1813;52.016;8.714;2022-08-05T12:57:20;4.00;;;3.60;;
3597;SDS011;1813;52.016;8.714;2022-08-05T12:59:52;4.53;;;4.03;;
3597;SDS011;1813;52.016;8.714;2022-08-05T13:02:25;7.73;;;4.40;;
3597;SDS011;1813;52.016;8.714;2022-08-05T13:04:58;7.10;;;4.77;;
3597;SDS011;1813;52.016;8.714;2022-08-05T13:07:31;5.73;;;4.77;;
3597;SDS011;1813;52.016;8.714;2022-08-05T13:10:04;9.07;;;5.17;;
3597;SDS011;1813;52.016;8.714;2022-08-05T13:12:42;6.30;;;5.00;;
3597;SDS011;1813;52.016;8.714;2022-08-05T13:15:15;6.80;;;5.10;;
3597;SDS011;1813;52.016;8.714;2022-08-05T13:17:51;6.33;;;4.67;;
3597;SDS011;1813;52.016;8.714;2022-08-05T13:20:32;5.87;;;5.10;;
3597;SDS011;1813;52.016;8.714;2022-08-05T13:23:06;5.60;;;5.03;;
3597;SDS011;1813;52.016;8.714;2022-08-05T13:25:38;7.80;;;5.00;;
3597;SDS011;1813;52.016;8.714;2022-08-05T13:28:10;5.93;;;4.70;;
3597;SDS011;1813;52.016;8.714;2022-08-05T13:30:42;7.07;;;5.00;;
3597;SDS011;1813;52.016;8.714;2022-08-05T13:33:14;7.50;;;5.20;;
3597;SDS011;1813;52.016;8.714;2022-08-05T13:35:46;5.83;;;5.17;;
3597;SDS011;1813;52.016;8.714;2022-08-05T13:38:19;8.70;;;5.30;;
3597;SDS011;1813;52.016;8.714;2022-08-05T13:40:51;4.60;;;4.10;;
3597;SDS011;1813;52.016;8.714;2022-08-05T13:43:23;7.87;;;4.90;;
3597;SDS011;1813;52.016;8.714;2022-08-05T13:45:55;4.73;;;3.67;;
3597;SDS011;1813;52.016;8.714;2022-08-05T13:48:27;5.47;;;3.73;;
3597;SDS011;1813;52.016;8.714;2022-08-05T13:51:03;5.07;;;3.70;;
3597;SDS011;1813;52.016;8.714;2022-08-05T13:53:38;11.80;;;3.70;;
3597;SDS011;1813;52.016;8.714;2022-08-05T13:56:10;8.10;;;3.23;;
3597;SDS011;1813;52.016;8.714;2022-08-05T13:58:42;4.20;;;3.80;;
3597;SDS011;1813;52.016;8.714;2022-08-05T14:01:14;5.70;;;3.27;;
3597;SDS011;1813;52.016;8.714;2022-08-05T14:03:46;4.57;;;3.00;;
3597;SDS011;1813;52.016;8.714;2022-08-05T14:06:35;4.90;;;3.13;;
3597;SDS011;1813;52.016;8.714;2022-08-05T14:09:08;3.73;;;3.40;;
3597;SDS011;1813;52.016;8.714;2022-08-05T14:11:40;7.00;;;3.73;;
3597;SDS011;1813;52.016;8.714;2022-08-05T14:14:12;8.70;;;3.93;;
3597;SDS011;1813;52.016;8.714;2022-08-05T14:16:44;5.00;;;4.00;;
3597;SDS011;1813;52.016;8.714;2022-08-05T14:19:16;5.67;;;3.90;;
3597;SDS011;1813;52.016;8.714;2022-08-05T14:21:48;6.83;;;3.80;;
3597;SDS011;1813;52.016;8.714;2022-08-05T14:24:22;5.63;;;3.47;;
3597;SDS011;1813;52.016;8.714;2022-08-05T14:26:54;3.80;;;3.40;;
3597;SDS011;1813;52.016;8.714;2022-08-05T14:29:25;3.70;;;3.20;;
3597;SDS011;1813;52.016;8.714;2022-08-05T14:31:57;3.30;;;3.00;;
3597;SDS011;1813;52.016;8.714;2022-08-05T14:34:29;4.50;;;3.00;;
3597;SDS011;1813;52.016;8.714;2022-08-05T14:37:02;4.93;;;3.03;;
3597;SDS011;1813;52.016;8.714;2022-08-05T14:39:36;3.03;;;2.73;;
3597;SDS011;1813;52.016;8.714;2022-08-05T14:42:08;2.97;;;2.67;;
3597;SDS011;1813;52.016;8.714;2022-08-05T14:44:40;8.03;;;2.90;;
3597;SDS011;1813;52.016;8.714;2022-08-05T14:47:12;3.63;;;2.83;;
3597;SDS011;1813;52.016;8.714;2022-08-05T14:49:44;3.67;;;2.83;;
3597;SDS011;1813;52.016;8.714;2022-08-05T14:52:16;3.10;;;2.73;;
3597;SDS011;1813;52.016;8.714;2022-08-05T14:54:50;3.40;;;2.80;;
3597;SDS011;1813;52.016;8.714;2022-08-05T14:57:22;3.93;;;2.40;;
3597;SDS011;1813;52.016;8.714;2022-08-05T14:59:54;4.47;;;2.60;;
3597;SDS011;1813;52.016;8.714;2022-08-05T15:02:26;3.73;;;2.50;;
3597;SDS011;1813;52.016;8.714;2022-08-05T15:04:58;7.17;;;2.67;;
3597;SDS011;1813;52.016;8.714;2022-08-05T15:07:30;4.10;;;2.37;;
3597;SDS011;1813;52.016;8.714;2022-08-05T15:10:03;6.17;;;2.77;;
3597;SDS011;1813;52.016;8.714;2022-08-05T15:12:36;7.60;;;2.80;;
3597;SDS011;1813;52.016;8.714;2022-08-05T15:15:09;8.63;;;3.00;;
3597;SDS011;1813;52.016;8.714;2022-08-05T15:17:41;3.17;;;2.50;;
3597;SDS011;1813;52.016;8.714;2022-08-05T15:20:13;5.77;;;2.70;;
3597;SDS011;1813;52.016;8.714;2022-08-05T15:22:45;3.50;;;2.53;;
3597;SDS011;1813;52.016;8.714;2022-08-05T15:25:19;2.97;;;2.50;;
3597;SDS011;1813;52.016;8.714;2022-08-05T15:27:52;3.43;;;2.53;;
3597;SDS011;1813;52.016;8.714;2022-08-05T15:30:24;3.47;;;2.73;;
3597;SDS011;1813;52.016;8.714;2022-08-05T15:32:56;2.67;;;2.43;;
3597;SDS011;1813;52.016;8.714;2022-08-05T15:35:28;3.40;;;2.43;;
3597;SDS011;1813;52.016;8.714;2022-08-05T15:38:00;4.50;;;2.30;;
3597;SDS011;1813;52.016;8.714;2022-08-05T15:40:33;2.47;;;2.20;;
3597;SDS011;1813;52.016;8.714;2022-08-05T15:43:05;4.57;;;2.30;;
3597;SDS011;1813;52.016;8.714;2022-08-05T15:45:37;2.50;;;2.30;;
3597;SDS011;1813;52.016;8.714;2022-08-05T15:48:13;3.60;;;2.53;;
3597;SDS011;1813;52.016;8.714;2022-08-05T15:50:45;4.57;;;2.60;;
3597;SDS011;1813;52.016;8.714;2022-08-05T15:53:18;4.40;;;2.13;;
3597;SDS011;1813;52.016;8.714;2022-08-05T15:55:52;3.70;;;2.20;;
3597;SDS011;1813;52.016;8.714;2022-08-05T15:58:24;4.23;;;2.20;;
3597;SDS011;1813;52.016;8.714;2022-08-05T16:00:57;3.70;;;2.20;;